Time;durP1;ratioP1;P1;durP2;ratioP2;P2;SDS_P1;SDS_P2;PMS_P1;PMS_P2;Temp;Humidity;BMP_temperature;BMP_pressure;BME280_temperature;BME280_humidity;BME280_pressure;Samples;Min_cycle;Max_cycle;Signal;HPM_P1;HPM_P2
2023/05/19 00:01:07;;;;;;;6.88;2.50;;;9.70;99.90;;;;;;5031425;28;20049;-68
2023/05/19 00:03:39;;;;;;;5.32;2.30;;;9.70;99.90;;;;;;5030700;28;20084;-68
2023/05/19 00:06:09;;;;;;;7.82;2.13;;;9.70;99.90;;;;;;5031239;28;20042;-68
2023/05/19 00:08:37;;;;;;;6.50;2.10;;;9.70;99.90;;;;;;5030748;28;20060;-68
2023/05/19 00:11:03;;;;;;;7.05;2.42;;;9.70;99.90;;;;;;5029195;28;20044;-68
2023/05/19 00:13:29;;;;;;;5.63;2.20;;;9.70;99.90;;;;;;5029355;28;20089;-68
2023/05/19 00:15:55;;;;;;;8.07;2.28;;;9.80;99.90;;;;;;5029492;28;20436;-67
2023/05/19 00:18:21;;;;;;;5.03;2.13;;;9.80;99.90;;;;;;5030252;28;20102;-68
2023/05/19 00:20:48;;;;;;;4.53;1.92;;;9.80;99.90;;;;;;5031067;28;20052;-68
2023/05/19 00:23:13;;;;;;;7.60;2.28;;;9.80;99.90;;;;;;5011916;28;20079;-68
2023/05/19 00:25:39;;;;;;;5.18;1.83;;;9.80;99.90;;;;;;5030989;28;20041;-68
2023/05/19 00:28:05;;;;;;;4.75;1.70;;;9.70;99.90;;;;;;5030499;28;20133;-67
2023/05/19 00:30:31;;;;;;;7.03;1.75;;;9.80;99.90;;;;;;5030709;28;20080;-68
2023/05/19 00:32:57;;;;;;;8.18;1.70;;;9.80;99.90;;;;;;5029528;28;20042;-68
2023/05/19 00:35:23;;;;;;;3.67;1.52;;;9.80;99.90;;;;;;5030309;28;20552;-68
2023/05/19 00:37:49;;;;;;;7.95;2.22;;;9.80;99.90;;;;;;5030162;28;20053;-68
2023/05/19 00:40:15;;;;;;;4.07;1.95;;;9.80;99.90;;;;;;5030806;28;20427;-68
2023/05/19 00:42:41;;;;;;;5.63;1.80;;;9.80;99.90;;;;;;5029082;28;20045;-68
2023/05/19 00:45:07;;;;;;;7.18;2.30;;;9.80;99.90;;;;;;5029871;28;20056;-67
2023/05/19 00:47:33;;;;;;;5.13;1.75;;;9.80;99.90;;;;;;5029984;28;20053;-68
2023/05/19 00:49:59;;;;;;;5.68;1.90;;;9.80;99.90;;;;;;5029152;28;20098;-69
2023/05/19 00:52:26;;;;;;;4.03;1.73;;;9.80;99.90;;;;;;5012999;28;20106;-68
2023/05/19 00:54:52;;;;;;;5.82;2.03;;;9.80;99.90;;;;;;5029394;28;20473;-68
2023/05/19 00:57:19;;;;;;;5.30;1.48;;;9.80;99.90;;;;;;5028947;28;20045;-68
2023/05/19 00:59:46;;;;;;;9.52;2.65;;;9.80;99.90;;;;;;5030169;28;20041;-68
2023/05/19 01:02:13;;;;;;;7.10;2.05;;;9.80;99.90;;;;;;5030330;28;20044;-68
2023/05/19 01:04:40;;;;;;;4.10;1.48;;;9.80;99.90;;;;;;5029061;28;20374;-68
2023/05/19 01:07:06;;;;;;;5.47;1.40;;;9.80;99.90;;;;;;5028691;28;20137;-68
2023/05/19 01:09:32;;;;;;;5.75;1.27;;;9.80;99.90;;;;;;5029993;28;20128;-68
2023/05/19 01:12:01;;;;;;;6.03;1.60;;;9.80;99.90;;;;;;5030464;28;20117;-68
2023/05/19 01:14:27;;;;;;;5.28;1.20;;;9.70;99.90;;;;;;5028948;28;20137;-68
2023/05/19 01:17:05;;;;;;;7.35;1.45;;;9.70;99.90;;;;;;5028410;28;20485;-68
2023/05/19 01:19:52;;;;;;;8.10;1.80;;;9.70;99.90;;;;;;5029943;28;20074;-68
2023/05/19 01:22:45;;;;;;;5.57;1.40;;;9.70;99.90;;;;;;5030182;28;20057;-68
2023/05/19 01:25:20;;;;;;;5.87;1.80;;;9.70;99.90;;;;;;5029383;28;20045;-69
2023/05/19 01:28:07;;;;;;;5.63;1.58;;;9.70;99.90;;;;;;4990271;28;20797;-68
2023/05/19 01:30:38;;;;;;;4.28;1.48;;;9.60;99.90;;;;;;5007731;28;20110;-68
2023/05/19 01:33:08;;;;;;;6.57;1.60;;;9.70;99.90;;;;;;5082153;28;20467;-68
2023/05/19 01:35:36;;;;;;;4.97;1.67;;;9.70;99.90;;;;;;5116052;28;20134;-69
2023/05/19 01:38:03;;;;;;;6.82;1.83;;;9.70;99.90;;;;;;5116879;28;20046;-68
2023/05/19 01:40:30;;;;;;;6.13;1.70;;;9.60;99.90;;;;;;5115872;28;20495;-68
2023/05/19 01:42:58;;;;;;;7.55;2.10;;;9.60;99.90;;;;;;5115361;28;20043;-68
2023/05/19 01:45:26;;;;;;;4.85;1.77;;;9.60;99.90;;;;;;5114897;28;20098;-69
2023/05/19 01:47:55;;;;;;;8.77;2.03;;;9.60;99.90;;;;;;5116481;28;20047;-68
2023/05/19 01:50:22;;;;;;;8.27;1.77;;;9.60;99.90;;;;;;5114830;28;20096;-69
2023/05/19 01:52:48;;;;;;;6.25;1.92;;;9.60;99.90;;;;;;4993788;28;20050;-69
2023/05/19 01:55:14;;;;;;;9.20;2.15;;;9.60;99.90;;;;;;4992881;28;20042;-68
2023/05/19 01:57:42;;;;;;;5.90;1.75;;;9.50;99.90;;;;;;4995232;28;20050;-68
2023/05/19 02:00:14;;;;;;;8.38;1.83;;;9.60;99.90;;;;;;5012826;28;20050;-68
2023/05/19 02:03:11;;;;;;;4.75;1.70;;;9.60;99.90;;;;;;5108472;28;20132;-69
2023/05/19 02:05:40;;;;;;;5.93;2.00;;;9.50;99.90;;;;;;5114709;28;20084;-68
2023/05/19 02:08:49;;;;;;;3.58;1.80;;;9.50;99.90;;;;;;5116399;28;20043;-68
2023/05/19 02:11:30;;;;;;;7.75;1.80;;;9.50;99.90;;;;;;5115382;28;20118;-68
2023/05/19 02:14:00;;;;;;;5.93;1.67;;;9.40;99.90;;;;;;5115024;28;20039;-68
2023/05/19 02:16:28;;;;;;;4.60;2.00;;;9.30;99.90;;;;;;5115620;27;20399;-68
2023/05/19 02:18:55;;;;;;;5.78;2.17;;;9.30;99.90;;;;;;5116231;28;20094;-68
2023/05/19 02:21:20;;;;;;;5.63;1.95;;;9.30;99.90;;;;;;5086765;28;20076;-68
2023/05/19 02:23:47;;;;;;;4.00;1.67;;;9.20;99.90;;;;;;5030124;28;20095;-68
2023/05/19 02:26:13;;;;;;;5.47;1.60;;;9.20;99.90;;;;;;5030850;28;20053;-68
2023/05/19 02:28:38;;;;;;;5.82;2.03;;;9.20;99.90;;;;;;5031999;28;20046;-69
2023/05/19 02:31:07;;;;;;;7.22;1.90;;;9.10;99.90;;;;;;5032544;28;20045;-68
2023/05/19 02:33:33;;;;;;;7.28;2.05;;;9.10;99.90;;;;;;5032361;28;20071;-68
2023/05/19 02:35:59;;;;;;;8.90;2.10;;;9.10;99.90;;;;;;5032455;28;20177;-68
2023/05/19 02:38:25;;;;;;;5.28;2.33;;;9.00;99.90;;;;;;5031714;28;20556;-68
2023/05/19 02:40:52;;;;;;;5.30;1.92;;;9.00;99.90;;;;;;5031317;28;20053;-68
2023/05/19 02:43:18;;;;;;;6.22;2.55;;;9.00;99.90;;;;;;5030840;28;20077;-68
2023/05/19 02:45:44;;;;;;;6.00;1.95;;;9.00;99.90;;;;;;5032695;28;20113;-70
2023/05/19 02:48:09;;;;;;;5.30;1.77;;;9.00;99.90;;;;;;5031672;28;20481;-68
2023/05/19 02:50:35;;;;;;;8.40;2.45;;;9.00;99.90;;;;;;5014275;28;20049;-68
2023/05/19 02:53:01;;;;;;;6.07;2.30;;;9.00;99.90;;;;;;5031398;28;20120;-68
2023/05/19 02:55:27;;;;;;;4.40;2.15;;;9.00;99.90;;;;;;5031823;28;20056;-68
2023/05/19 02:57:53;;;;;;;5.85;1.95;;;9.00;99.90;;;;;;5032067;28;20141;-68
2023/05/19 03:00:18;;;;;;;8.25;2.50;;;9.00;99.90;;;;;;5030689;28;20079;-68
2023/05/19 03:02:44;;;;;;;5.68;2.53;;;8.90;99.90;;;;;;5030212;28;20481;-69
2023/05/19 03:05:10;;;;;;;6.70;2.67;;;8.90;99.90;;;;;;5014095;28;20056;-68
2023/05/19 03:07:36;;;;;;;5.78;2.08;;;8.90;99.90;;;;;;5031808;28;20049;-68
2023/05/19 03:10:05;;;;;;;6.90;2.30;;;8.90;99.90;;;;;;5031648;28;20045;-69
2023/05/19 03:12:32;;;;;;;7.57;2.10;;;8.90;99.90;;;;;;5031861;28;20052;-68
2023/05/19 03:14:58;;;;;;;4.68;2.00;;;8.80;99.90;;;;;;5031436;28;20172;-68
2023/05/19 03:17:24;;;;;;;6.88;2.35;;;8.80;99.90;;;;;;5031807;28;20386;-68
2023/05/19 03:19:50;;;;;;;5.80;2.55;;;8.80;99.90;;;;;;5031392;28;20056;-69
2023/05/19 03:22:17;;;;;;;3.88;1.83;;;8.80;99.90;;;;;;5031487;28;20049;-68
2023/05/19 03:24:43;;;;;;;5.53;1.65;;;8.80;99.90;;;;;;5029183;28;20069;-68
2023/05/19 03:27:09;;;;;;;12.23;2.60;;;8.80;99.90;;;;;;5030148;28;20049;-68
2023/05/19 03:29:36;;;;;;;4.05;2.03;;;8.80;99.90;;;;;;5031222;28;20132;-68
2023/05/19 03:32:01;;;;;;;7.25;2.75;;;8.80;99.90;;;;;;5031588;28;20405;-68
2023/05/19 03:34:27;;;;;;;7.25;2.17;;;8.90;99.90;;;;;;5030004;28;20049;-68
2023/05/19 03:36:53;;;;;;;6.45;2.33;;;8.90;99.90;;;;;;5029713;28;20061;-68
2023/05/19 03:39:18;;;;;;;6.43;2.13;;;9.00;99.90;;;;;;5030106;28;20049;-68
2023/05/19 03:41:44;;;;;;;7.75;2.88;;;9.00;99.90;;;;;;5029805;28;20042;-69
2023/05/19 03:44:10;;;;;;;7.57;2.58;;;9.00;99.90;;;;;;5013677;28;20046;-68
2023/05/19 03:46:35;;;;;;;6.70;2.22;;;9.00;99.90;;;;;;5031627;28;20067;-68
2023/05/19 03:49:01;;;;;;;5.90;2.22;;;9.10;99.90;;;;;;5029552;28;20090;-68
2023/05/19 03:51:28;;;;;;;7.47;2.60;;;9.10;99.90;;;;;;5031116;28;20057;-68
2023/05/19 03:53:54;;;;;;;5.85;2.40;;;9.10;99.90;;;;;;5028904;28;20085;-68
2023/05/19 03:56:23;;;;;;;6.32;2.78;;;9.10;99.90;;;;;;5030169;28;20393;-68
2023/05/19 03:58:49;;;;;;;6.70;2.25;;;9.20;99.90;;;;;;5030966;28;20061;-68
2023/05/19 04:01:15;;;;;;;5.38;2.75;;;9.10;99.90;;;;;;5031420;28;20045;-68
2023/05/19 04:03:41;;;;;;;6.55;2.80;;;9.10;99.90;;;;;;5029602;28;20072;-69
2023/05/19 04:06:07;;;;;;;5.88;2.85;;;9.10;99.90;;;;;;5030804;28;20046;-68
2023/05/19 04:08:33;;;;;;;8.35;2.90;;;9.00;99.90;;;;;;5031322;28;20054;-68
2023/05/19 04:10:58;;;;;;;6.68;2.97;;;9.00;99.90;;;;;;5030898;28;20050;-67
2023/05/19 04:13:24;;;;;;;8.10;2.90;;;9.00;99.90;;;;;;5029514;28;20382;-67
2023/05/19 04:15:50;;;;;;;5.65;2.45;;;9.00;99.90;;;;;;5029543;28;20064;-68
2023/05/19 04:18:16;;;;;;;6.82;3.00;;;9.00;99.90;;;;;;5031035;28;20401;-68
2023/05/19 04:20:41;;;;;;;6.65;3.08;;;9.00;99.90;;;;;;5030599;28;20053;-68
2023/05/19 04:23:07;;;;;;;6.63;2.28;;;9.00;99.90;;;;;;5030128;28;20064;-68
2023/05/19 04:25:35;;;;;;;6.38;2.88;;;9.00;99.90;;;;;;5018267;28;20057;-69
2023/05/19 04:28:01;;;;;;;5.55;2.85;;;8.90;99.90;;;;;;5010471;28;20505;-68
2023/05/19 04:30:28;;;;;;;5.65;3.00;;;8.90;99.90;;;;;;5010566;28;20053;-68
2023/05/19 04:32:53;;;;;;;7.57;3.08;;;8.90;99.90;;;;;;5009377;28;20103;-68
2023/05/19 04:35:20;;;;;;;6.43;2.90;;;8.90;99.90;;;;;;5009295;28;20042;-68
2023/05/19 04:37:45;;;;;;;6.20;2.67;;;9.00;99.90;;;;;;5010860;28;20405;-68
2023/05/19 04:40:14;;;;;;;7.75;2.80;;;9.00;99.90;;;;;;5010681;28;20041;-68
2023/05/19 04:42:41;;;;;;;6.20;2.78;;;9.00;99.90;;;;;;5009283;28;20489;-68
2023/05/19 04:45:08;;;;;;;7.60;3.15;;;9.00;99.90;;;;;;5009425;28;20079;-68
2023/05/19 04:47:37;;;;;;;7.75;2.90;;;9.00;99.90;;;;;;5009279;28;20049;-68
2023/05/19 04:50:04;;;;;;;8.20;3.47;;;9.00;99.90;;;;;;5009251;28;20053;-68
2023/05/19 04:52:30;;;;;;;6.05;2.88;;;9.00;99.90;;;;;;5009359;28;20111;-68
2023/05/19 04:54:55;;;;;;;6.03;3.15;;;9.10;99.90;;;;;;5009866;28;20085;-68
2023/05/19 04:57:21;;;;;;;5.10;2.72;;;9.10;99.90;;;;;;5009408;28;20042;-68
2023/05/19 04:59:48;;;;;;;7.07;3.05;;;9.10;99.90;;;;;;5010185;28;20111;-68
2023/05/19 05:02:14;;;;;;;8.23;3.30;;;9.20;99.90;;;;;;4992737;28;20056;-68
2023/05/19 05:04:42;;;;;;;7.22;3.15;;;9.20;99.90;;;;;;5010653;28;20046;-68
2023/05/19 05:07:09;;;;;;;6.03;3.30;;;9.20;99.90;;;;;;5012997;28;20054;-68
2023/05/19 05:09:34;;;;;;;7.68;3.15;;;9.20;99.90;;;;;;4996652;28;20061;-68
2023/05/19 05:12:01;;;;;;;7.18;3.67;;;9.20;99.90;;;;;;5012503;28;20045;-68
2023/05/19 05:14:27;;;;;;;5.95;3.28;;;9.30;99.90;;;;;;5013529;28;20088;-68
2023/05/19 05:16:54;;;;;;;6.28;3.60;;;9.30;99.90;;;;;;5013342;28;20045;-68
2023/05/19 05:19:21;;;;;;;5.82;3.35;;;9.30;99.90;;;;;;5013580;28;20050;-68
2023/05/19 05:21:47;;;;;;;6.05;3.47;;;9.40;99.90;;;;;;5013283;28;20512;-68
2023/05/19 05:24:13;;;;;;;7.82;3.30;;;9.40;99.90;;;;;;4995028;28;20386;-68
2023/05/19 05:26:39;;;;;;;8.10;3.75;;;9.40;99.90;;;;;;5012303;28;20050;-68
2023/05/19 05:29:05;;;;;;;7.63;3.47;;;9.40;99.90;;;;;;5013334;28;20041;-68
2023/05/19 05:31:31;;;;;;;5.47;3.50;;;9.50;99.90;;;;;;5013218;28;20083;-68
2023/05/19 05:33:57;;;;;;;7.60;3.80;;;9.50;99.90;;;;;;5013276;28;20125;-68
2023/05/19 05:36:23;;;;;;;5.70;2.90;;;9.60;99.90;;;;;;4996083;28;20612;-68
2023/05/19 05:38:48;;;;;;;6.97;3.00;;;9.60;99.90;;;;;;4996385;28;20155;-67
2023/05/19 05:41:14;;;;;;;6.13;2.95;;;9.70;99.90;;;;;;5013250;28;20049;-68
2023/05/19 05:43:40;;;;;;;7.03;3.03;;;9.70;99.90;;;;;;5013046;28;20064;-67
2023/05/19 05:46:06;;;;;;;8.48;3.15;;;9.80;99.90;;;;;;5011940;28;20046;-68
2023/05/19 05:48:32;;;;;;;7.85;3.42;;;9.90;99.90;;;;;;5012887;28;20088;-68
2023/05/19 05:50:58;;;;;;;6.72;2.40;;;9.90;99.90;;;;;;5013202;28;20077;-68
2023/05/19 05:53:25;;;;;;;4.43;2.70;;;10.00;99.90;;;;;;5012470;28;20038;-68
2023/05/19 05:55:52;;;;;;;5.82;3.08;;;10.00;99.90;;;;;;5011917;28;20062;-68
2023/05/19 05:58:20;;;;;;;8.85;3.70;;;10.10;99.90;;;;;;5012940;28;20098;-68
2023/05/19 06:00:48;;;;;;;7.28;2.97;;;10.10;99.90;;;;;;5011650;28;20053;-68
2023/05/19 06:03:15;;;;;;;8.75;3.25;;;10.20;99.90;;;;;;5011866;28;20122;-68
2023/05/19 06:05:41;;;;;;;6.65;2.63;;;10.20;99.90;;;;;;5012883;28;20099;-68
2023/05/19 06:08:07;;;;;;;5.55;2.30;;;10.20;99.90;;;;;;5011982;28;20054;-68
2023/05/19 06:10:34;;;;;;;4.55;1.98;;;10.30;99.90;;;;;;5012866;28;20512;-68
2023/05/19 06:13:00;;;;;;;4.20;2.42;;;10.30;99.90;;;;;;5011704;28;20061;-68
2023/05/19 06:15:25;;;;;;;7.85;2.45;;;10.30;99.90;;;;;;5012288;28;20050;-68
2023/05/19 06:17:51;;;;;;;5.28;2.53;;;10.40;99.90;;;;;;5012640;28;20187;-68
2023/05/19 06:20:17;;;;;;;4.95;2.17;;;10.40;99.90;;;;;;5012818;28;20069;-68
2023/05/19 06:22:43;;;;;;;4.63;2.05;;;10.50;99.90;;;;;;5012701;28;20373;-68
2023/05/19 06:25:08;;;;;;;5.80;2.38;;;10.50;99.90;;;;;;5011127;28;20514;-68
2023/05/19 06:27:35;;;;;;;8.85;2.55;;;10.60;99.90;;;;;;5012369;28;20512;-68
2023/05/19 06:30:01;;;;;;;4.80;2.40;;;10.60;99.90;;;;;;5012564;28;20046;-68
2023/05/19 06:32:28;;;;;;;6.07;2.38;;;10.70;99.90;;;;;;5011312;28;20138;-68
2023/05/19 06:34:54;;;;;;;5.03;2.05;;;10.70;99.90;;;;;;4995607;28;20486;-68
2023/05/19 06:37:23;;;;;;;5.47;2.17;;;10.80;99.90;;;;;;4978890;28;20453;-68
2023/05/19 06:39:51;;;;;;;4.35;2.33;;;10.80;99.90;;;;;;4995076;28;20103;-68
2023/05/19 06:42:24;;;;;;;5.35;2.10;;;10.90;99.90;;;;;;5010778;28;20516;-68
2023/05/19 06:44:50;;;;;;;5.70;2.20;;;10.90;99.90;;;;;;5012535;28;20097;-68
2023/05/19 06:47:16;;;;;;;7.38;2.20;;;11.00;99.90;;;;;;5011237;28;20038;-68
2023/05/19 06:49:44;;;;;;;3.47;2.03;;;11.00;99.90;;;;;;5012357;28;20042;-68
2023/05/19 06:52:10;;;;;;;4.75;1.90;;;11.10;99.90;;;;;;5012183;28;20384;-68
2023/05/19 06:54:36;;;;;;;3.60;2.15;;;11.10;99.90;;;;;;5011589;28;20034;-68
2023/05/19 06:57:02;;;;;;;7.43;2.25;;;11.20;99.90;;;;;;5012020;28;20061;-68
2023/05/19 06:59:28;;;;;;;5.68;2.25;;;11.20;99.90;;;;;;5010819;28;20485;-68
2023/05/19 07:01:54;;;;;;;4.90;1.88;;;11.30;99.90;;;;;;5010726;28;20053;-68
2023/05/19 07:04:19;;;;;;;3.70;1.63;;;11.30;99.90;;;;;;5011932;28;20038;-68
2023/05/19 07:06:45;;;;;;;3.50;1.63;;;11.40;99.90;;;;;;4994462;28;20049;-68
2023/05/19 07:09:11;;;;;;;4.80;2.20;;;11.40;99.90;;;;;;5011869;28;20046;-68
2023/05/19 07:11:36;;;;;;;5.80;2.20;;;11.50;99.90;;;;;;5011593;28;20401;-68
2023/05/19 07:14:02;;;;;;;6.00;1.83;;;11.60;99.90;;;;;;5011219;28;20046;-68
2023/05/19 07:16:28;;;;;;;6.60;1.70;;;11.60;99.90;;;;;;5011829;28;20150;-68
2023/05/19 07:18:53;;;;;;;5.90;1.83;;;11.80;99.90;;;;;;5011162;28;20042;-67
2023/05/19 07:21:19;;;;;;;4.38;1.80;;;11.80;99.90;;;;;;5010681;28;20418;-68
2023/05/19 07:23:45;;;;;;;4.38;1.40;;;11.90;99.90;;;;;;5010910;28;20490;-68
2023/05/19 07:26:11;;;;;;;2.85;1.60;;;11.90;99.90;;;;;;5011541;28;20045;-68
2023/05/19 07:28:36;;;;;;;3.53;1.45;;;12.00;99.90;;;;;;5010890;28;20053;-68
2023/05/19 07:31:02;;;;;;;3.65;1.52;;;12.10;99.90;;;;;;5011821;28;20053;-67
2023/05/19 07:33:28;;;;;;;4.22;1.23;;;12.10;99.90;;;;;;5010860;28;20065;-67
2023/05/19 07:35:53;;;;;;;4.32;1.27;;;12.20;99.90;;;;;;5011506;28;20494;-68
2023/05/19 07:38:19;;;;;;;4.90;1.13;;;12.20;99.90;;;;;;5010394;28;20050;-68
2023/05/19 07:40:45;;;;;;;3.55;1.23;;;12.30;99.90;;;;;;5010450;28;20049;-68
2023/05/19 07:43:10;;;;;;;2.15;1.30;;;12.30;99.90;;;;;;5011520;28;20346;-68
2023/05/19 07:45:37;;;;;;;4.40;1.10;;;12.30;99.90;;;;;;5010477;28;20046;-68
2023/05/19 07:48:03;;;;;;;5.85;1.27;;;12.40;99.90;;;;;;5010730;28;20049;-68
2023/05/19 07:50:28;;;;;;;5.30;1.38;;;12.50;99.90;;;;;;5011419;28;20037;-68
2023/05/19 07:52:54;;;;;;;3.45;1.13;;;12.50;99.90;;;;;;5010143;28;20158;-68
2023/05/19 07:55:22;;;;;;;1.60;1.00;;;12.50;99.90;;;;;;5010741;28;20042;-68
2023/05/19 07:57:50;;;;;;;6.65;1.63;;;12.60;99.90;;;;;;5011416;28;20091;-68
2023/05/19 08:00:16;;;;;;;6.72;1.13;;;12.60;99.90;;;;;;5011925;28;20386;-68
2023/05/19 08:02:43;;;;;;;4.07;1.17;;;12.70;99.90;;;;;;5010141;28;20462;-68
2023/05/19 08:05:09;;;;;;;3.13;1.50;;;12.70;99.90;;;;;;5010306;28;20057;-68
2023/05/19 08:07:35;;;;;;;5.10;1.40;;;12.70;99.90;;;;;;5011193;28;20049;-68
2023/05/19 08:10:01;;;;;;;3.67;1.02;;;12.80;99.90;;;;;;5011056;28;20386;-68
2023/05/19 08:12:27;;;;;;;4.97;1.38;;;12.80;99.90;;;;;;5010577;28;20452;-70
2023/05/19 08:14:53;;;;;;;4.57;1.50;;;12.90;99.90;;;;;;4994068;28;20223;-67
2023/05/19 08:17:18;;;;;;;5.13;1.92;;;13.00;99.90;;;;;;5010836;28;20034;-68
2023/05/19 08:19:44;;;;;;;2.80;1.13;;;13.00;99.90;;;;;;5011144;28;20042;-68
2023/05/19 08:22:10;;;;;;;4.28;1.25;;;13.00;99.90;;;;;;5061261;28;20043;-67
2023/05/19 08:24:35;;;;;;;5.40;1.33;;;13.00;99.90;;;;;;5095152;28;20055;-66
2023/05/19 08:27:03;;;;;;;3.00;1.10;;;13.10;99.90;;;;;;5113060;28;20051;-66
2023/05/19 08:29:30;;;;;;;4.43;1.27;;;13.10;99.90;;;;;;5114086;28;20126;-68
2023/05/19 08:31:57;;;;;;;3.05;1.30;;;13.10;99.90;;;;;;5089711;28;20042;-66
2023/05/19 08:34:23;;;;;;;3.13;1.38;;;13.20;99.90;;;;;;5010146;28;20041;-67
2023/05/19 08:36:49;;;;;;;2.17;1.10;;;13.20;99.90;;;;;;4992979;28;20536;-66
2023/05/19 08:39:17;;;;;;;5.43;1.55;;;13.30;99.90;;;;;;5011340;28;20079;-66
2023/05/19 08:41:43;;;;;;;2.70;1.10;;;13.30;99.90;;;;;;5013985;28;20373;-66
2023/05/19 08:44:08;;;;;;;3.05;1.20;;;13.40;99.90;;;;;;5013748;28;20030;-67
2023/05/19 08:46:35;;;;;;;2.45;1.25;;;13.40;99.90;;;;;;5013848;28;20087;-66
2023/05/19 08:49:11;;;;;;;3.55;1.50;;;13.40;99.90;;;;;;5012691;28;20045;-66
2023/05/19 08:52:13;;;;;;;4.30;1.60;;;13.50;99.90;;;;;;5011556;28;20486;-67
2023/05/19 08:54:52;;;;;;;3.03;1.17;;;13.50;99.90;;;;;;5018455;28;20485;-66
2023/05/19 08:57:18;;;;;;;5.30;1.17;;;13.50;99.90;;;;;;5011641;28;20114;-66
2023/05/19 08:59:44;;;;;;;26.85;4.53;;;13.60;99.90;;;;;;5012384;28;20112;-66
2023/05/19 09:02:12;;;;;;;2.55;1.42;;;13.60;99.90;;;;;;5013294;28;20045;-66
2023/05/19 09:04:40;;;;;;;12.90;2.55;;;13.70;99.90;;;;;;5012072;28;20071;-66
2023/05/19 09:07:08;;;;;;;8.88;1.77;;;13.70;99.90;;;;;;5013457;28;20046;-66
2023/05/19 09:09:33;;;;;;;2.17;1.23;;;13.80;99.90;;;;;;4996161;28;20156;-67
2023/05/19 09:11:59;;;;;;;6.90;1.50;;;13.80;99.90;;;;;;5013310;28;20148;-66
2023/05/19 09:14:25;;;;;;;13.98;2.50;;;13.90;99.90;;;;;;5013256;28;20034;-66
2023/05/19 09:16:51;;;;;;;5.78;1.20;;;13.90;99.90;;;;;;4995629;28;20148;-66
2023/05/19 09:19:19;;;;;;;3.80;1.00;;;14.00;99.90;;;;;;5012339;28;20373;-66
2023/05/19 09:21:45;;;;;;;4.45;1.10;;;14.00;99.90;;;;;;5023438;28;20053;-66
2023/05/19 09:24:11;;;;;;;4.47;1.20;;;14.10;99.90;;;;;;5012226;28;20394;-66
2023/05/19 09:26:38;;;;;;;4.55;1.30;;;14.10;99.90;;;;;;5011720;28;20411;-64
2023/05/19 09:29:17;;;;;;;3.83;1.10;;;14.10;99.90;;;;;;5012629;28;20366;-67
2023/05/19 09:32:04;;;;;;;5.70;1.80;;;14.20;99.90;;;;;;5019485;28;20133;-66
2023/05/19 09:34:30;;;;;;;3.55;1.13;;;14.30;99.90;;;;;;5011244;28;20030;-67
2023/05/19 09:36:58;;;;;;;4.10;1.25;;;14.30;99.90;;;;;;5014303;28;20061;-65
2023/05/19 09:39:24;;;;;;;2.92;1.60;;;14.40;99.90;;;;;;5012885;28;20068;-67
2023/05/19 09:41:54;;;;;;;2.85;1.17;;;14.40;99.90;;;;;;5012532;28;20038;-66
2023/05/19 09:44:28;;;;;;;4.18;1.50;;;14.40;99.90;;;;;;5012834;28;20116;-66
2023/05/19 09:46:54;;;;;;;3.45;1.45;;;14.40;99.90;;;;;;5020274;28;20125;-66
2023/05/19 09:49:24;;;;;;;4.97;1.38;;;14.50;99.90;;;;;;5013092;28;20029;-66
2023/05/19 09:51:56;;;;;;;3.47;1.40;;;14.50;99.90;;;;;;5013851;28;20041;-67
2023/05/19 09:54:24;;;;;;;3.63;1.33;;;14.60;99.90;;;;;;5010937;28;20046;-66
2023/05/19 09:57:00;;;;;;;5.47;1.10;;;14.70;99.90;;;;;;5011166;28;20445;-67
2023/05/19 09:59:27;;;;;;;4.65;1.70;;;14.70;99.90;;;;;;5012574;28;20034;-66
2023/05/19 10:01:57;;;;;;;3.67;1.30;;;14.80;99.90;;;;;;5013935;28;20049;-66
2023/05/19 10:04:28;;;;;;;4.03;1.25;;;14.80;99.90;;;;;;5012289;28;20052;-66
2023/05/19 10:06:58;;;;;;;3.85;1.40;;;14.80;99.90;;;;;;5021365;28;20125;-66
2023/05/19 10:09:28;;;;;;;4.75;1.23;;;14.80;99.90;;;;;;5012393;28;20095;-67
2023/05/19 10:11:57;;;;;;;4.13;1.40;;;14.90;99.90;;;;;;5018305;28;20049;-66
2023/05/19 10:14:28;;;;;;;1.70;1.20;;;14.90;99.90;;;;;;5012060;28;20077;-66
2023/05/19 10:16:56;;;;;;;4.03;1.27;;;14.90;99.90;;;;;;5007889;28;20501;-66
2023/05/19 10:19:23;;;;;;;3.60;1.20;;;15.00;99.90;;;;;;5010941;28;20099;-66
2023/05/19 10:21:50;;;;;;;2.78;1.08;;;15.00;99.90;;;;;;5020395;28;20048;-67
2023/05/19 10:24:16;;;;;;;2.45;0.93;;;15.10;99.90;;;;;;5011644;28;20045;-66
2023/05/19 10:27:02;;;;;;;4.82;1.48;;;15.10;99.90;;;;;;4994569;28;20038;-68
2023/05/19 10:29:41;;;;;;;2.70;1.10;;;15.10;99.90;;;;;;5011667;28;20038;-66
2023/05/19 10:32:15;;;;;;;3.88;1.40;;;15.20;99.90;;;;;;5073955;28;20040;-66
2023/05/19 10:34:56;;;;;;;4.93;1.33;;;15.20;99.90;;;;;;5115928;28;20040;-68
2023/05/19 10:37:31;;;;;;;2.45;1.40;;;15.30;99.90;;;;;;5114611;28;20044;-66
2023/05/19 10:39:57;;;;;;;4.97;1.58;;;15.30;99.90;;;;;;5115834;28;20039;-67
2023/05/19 10:42:39;;;;;;;3.63;1.52;;;15.40;99.90;;;;;;5114335;28;20043;-67
2023/05/19 10:45:18;;;;;;;4.65;1.38;;;15.40;99.90;;;;;;5115290;28;20043;-67
2023/05/19 10:47:44;;;;;;;2.75;1.63;;;15.40;99.90;;;;;;5045084;28;20512;-66
2023/05/19 10:50:11;;;;;;;3.60;1.42;;;15.50;99.90;;;;;;4997879;28;20049;-66
2023/05/19 10:52:38;;;;;;;4.60;1.50;;;15.50;99.90;;;;;;5031825;28;20101;-67
2023/05/19 10:55:07;;;;;;;5.25;1.42;;;15.60;99.90;;;;;;5030946;28;20053;-67
2023/05/19 10:57:33;;;;;;;4.70;1.88;;;15.70;99.90;;;;;;5031632;28;20063;-66
2023/05/19 11:00:10;;;;;;;3.55;1.40;;;15.70;99.90;;;;;;5030355;28;20045;-66
2023/05/19 11:02:41;;;;;;;2.83;1.50;;;15.70;99.90;;;;;;5028757;28;20393;-66
2023/05/19 11:05:13;;;;;;;4.38;1.73;;;15.80;99.90;;;;;;5031143;28;20389;-67
2023/05/19 11:07:43;;;;;;;2.22;1.65;;;15.90;99.90;;;;;;5031428;28;20041;-67
2023/05/19 11:10:09;;;;;;;12.50;2.53;;;15.90;99.90;;;;;;5031303;28;20053;-67
2023/05/19 11:12:43;;;;;;;3.60;1.65;;;15.90;99.90;;;;;;5030312;28;20045;-67
2023/05/19 11:15:14;;;;;;;3.67;1.63;;;15.90;99.90;;;;;;5030341;28;20049;-66
2023/05/19 11:17:43;;;;;;;4.57;1.50;;;15.90;99.90;;;;;;5031523;28;20049;-67
2023/05/19 11:20:25;;;;;;;6.93;1.60;;;16.00;99.90;;;;;;5031666;28;20091;-66
2023/05/19 11:23:08;;;;;;;3.80;1.80;;;16.10;99.90;;;;;;5030126;28;20494;-66
2023/05/19 11:25:52;;;;;;;16.83;3.17;;;16.10;99.90;;;;;;5030990;28;20053;-67
2023/05/19 11:28:24;;;;;;;7.63;1.92;;;16.20;99.90;;;;;;5031511;28;20046;-66
2023/05/19 11:30:52;;;;;;;3.80;1.37;;;16.30;99.90;;;;;;5014592;28;20141;-67
2023/05/19 11:33:19;;;;;;;3.55;1.33;;;16.40;99.90;;;;;;5031425;28;20393;-67
2023/05/19 11:35:46;;;;;;;3.28;1.48;;;16.40;99.90;;;;;;5031271;28;20056;-67
2023/05/19 11:38:13;;;;;;;4.15;1.52;;;16.50;99.90;;;;;;5031251;28;20049;-66
2023/05/19 11:40:40;;;;;;;3.88;1.40;;;16.50;99.90;;;;;;5031205;28;20071;-67
2023/05/19 11:43:06;;;;;;;4.45;1.65;;;16.50;99.90;;;;;;5031179;28;20037;-66
2023/05/19 11:45:33;;;;;;;7.30;1.90;;;16.50;99.90;;;;;;5030251;28;20041;-67
2023/05/19 11:47:59;;;;;;;5.03;1.50;;;16.60;99.90;;;;;;5030201;28;20049;-66
2023/05/19 11:50:25;;;;;;;4.15;1.50;;;16.70;99.90;;;;;;5030308;28;20094;-66
2023/05/19 11:52:52;;;;;;;3.78;1.42;;;16.70;99.90;;;;;;5014029;28;20045;-66
2023/05/19 11:55:20;;;;;;;3.17;1.40;;;16.80;99.90;;;;;;5013225;28;20050;-67
2023/05/19 11:58:02;;;;;;;3.88;1.60;;;16.90;99.90;;;;;;5030536;28;20054;-67
2023/05/19 12:00:30;;;;;;;3.17;1.58;;;16.90;99.90;;;;;;5030439;28;20042;-67
2023/05/19 12:02:56;;;;;;;5.15;1.88;;;16.90;99.90;;;;;;5031163;28;20114;-66
2023/05/19 12:05:24;;;;;;;4.05;1.40;;;17.00;99.90;;;;;;5030976;28;20045;-66
2023/05/19 12:07:51;;;;;;;3.13;1.85;;;17.00;99.90;;;;;;5029789;28;20084;-67
2023/05/19 12:10:25;;;;;;;4.18;1.25;;;17.10;99.90;;;;;;5030962;28;20053;-67
2023/05/19 12:12:51;;;;;;;3.78;1.50;;;17.10;99.90;;;;;;5030784;28;20050;-67
2023/05/19 12:15:24;;;;;;;2.40;1.35;;;17.20;99.90;;;;;;5030459;28;20050;-66
2023/05/19 12:17:57;;;;;;;3.70;1.35;;;17.20;99.90;;;;;;5013321;28;20501;-66
2023/05/19 12:20:24;;;;;;;4.95;1.17;;;17.20;99.90;;;;;;5029520;28;20128;-67
2023/05/19 12:22:51;;;;;;;5.07;1.83;;;17.20;99.80;;;;;;5030646;28;20049;-67
2023/05/19 12:25:19;;;;;;;2.67;1.65;;;17.20;99.40;;;;;;5008972;28;20281;-67
2023/05/19 12:27:47;;;;;;;2.92;1.27;;;17.20;99.30;;;;;;5026218;28;20050;-66
2023/05/19 12:30:13;;;;;;;2.70;1.90;;;17.20;99.40;;;;;;5010762;28;20056;-66
2023/05/19 12:32:39;;;;;;;4.20;1.20;;;17.20;99.50;;;;;;5010842;28;20490;-67
2023/05/19 12:35:05;;;;;;;5.13;1.50;;;17.20;99.50;;;;;;5010603;28;20057;-69
2023/05/19 12:37:33;;;;;;;3.65;1.85;;;17.30;99.90;;;;;;5009650;28;20048;-69
2023/05/19 12:40:00;;;;;;;2.78;1.10;;;17.30;98.90;;;;;;5009110;28;20107;-67
2023/05/19 12:42:30;;;;;;;5.00;1.40;;;17.30;99.30;;;;;;5009580;28;20054;-67
2023/05/19 12:44:57;;;;;;;4.20;1.75;;;17.30;99.90;;;;;;5009306;28;20432;-67
2023/05/19 12:47:32;;;;;;;5.32;1.10;;;17.30;99.90;;;;;;5010538;28;20050;-67
2023/05/19 12:50:06;;;;;;;4.28;1.33;;;17.30;99.70;;;;;;5009817;28;20081;-67
2023/05/19 12:52:34;;;;;;;3.92;1.40;;;17.40;99.90;;;;;;5010769;28;20046;-66
2023/05/19 12:55:09;;;;;;;5.80;1.85;;;17.40;99.20;;;;;;5010029;28;20114;-67